Time;durP1;ratioP1;P1;durP2;ratioP2;P2;SDS_P1;SDS_P2;PMS_P1;PMS_P2;Temp;Humidity;BMP_temperature;BMP_pressure;BME280_temperature;BME280_humidity;BME280_pressure;Samples;Min_cycle;Max_cycle;Signal;HPM_P1;HPM_P2
2022/03/01 00:01:15;;;;;;;;;198.67;172.00;;;;;;;;5066185;28;45574;-79
2022/03/01 00:03:41;;;;;;;;;80.00;61.67;;;;;;;;5069113;28;45332;-79
2022/03/01 00:06:06;;;;;;;;;281.25;256.00;;;;;;;;5071845;27;45457;-79
2022/03/01 00:08:31;;;;;;;;;59.75;50.00;;;;;;;;5069604;28;45401;-79
2022/03/01 00:10:56;;;;;;;;;74.00;59.00;;;;;;;;5070863;27;45417;-79
2022/03/01 00:13:22;;;;;;;;;64.75;52.00;;;;;;;;5069644;28;45142;-79
2022/03/01 00:15:47;;;;;;;;;60.75;44.75;;;;;;;;5071606;28;45642;-79
2022/03/01 00:18:13;;;;;;;;;54.75;42.75;;;;;;;;5078725;28;46234;-80
2022/03/01 00:20:38;;;;;;;;;80.33;64.33;;;;;;;;5076489;28;45421;-79
2022/03/01 00:23:03;;;;;;;;;58.25;44.00;;;;;;;;5073716;28;44728;-80
2022/03/01 00:25:28;;;;;;;;;113.00;95.25;;;;;;;;5073342;28;45412;-79
2022/03/01 00:27:53;;;;;;;;;83.00;64.33;;;;;;;;5073505;28;45044;-79
2022/03/01 00:30:19;;;;;;;;;61.00;48.75;;;;;;;;5072222;28;46395;-80
2022/03/01 00:32:44;;;;;;;;;66.00;52.25;;;;;;;;5074781;28;45307;-79
2022/03/01 00:35:09;;;;;;;;;69.25;52.00;;;;;;;;5076112;28;45474;-79
2022/03/01 00:37:34;;;;;;;;;70.00;53.33;;;;;;;;5078372;28;46156;-79
2022/03/01 00:40:00;;;;;;;;;81.33;65.33;;;;;;;;5072941;28;48044;-79
2022/03/01 00:42:25;;;;;;;;;73.00;58.67;;;;;;;;5068068;28;46291;-79
2022/03/01 00:44:50;;;;;;;;;78.67;59.67;;;;;;;;5073304;28;45302;-79
2022/03/01 00:47:15;;;;;;;;;68.50;54.00;;;;;;;;5068708;28;45340;-79
2022/03/01 00:49:42;;;;;;;;;96.00;83.33;;;;;;;;5077047;27;46490;-79
2022/03/01 00:52:07;;;;;;;;;89.00;71.00;;;;;;;;5078030;28;45177;-79
2022/03/01 00:54:32;;;;;;;;;313.33;266.00;;;;;;;;5077471;28;45259;-79
2022/03/01 00:56:57;;;;;;;;;65.00;51.67;;;;;;;;5060872;28;45207;-79
2022/03/01 00:59:23;;;;;;;;;156.00;134.25;;;;;;;;5069537;28;47167;-78
2022/03/01 01:01:48;;;;;;;;;72.33;56.33;;;;;;;;5071265;28;45391;-79
2022/03/01 01:04:13;;;;;;;;;122.50;112.25;;;;;;;;5072204;28;45309;-79
2022/03/01 01:06:38;;;;;;;;;56.00;45.25;;;;;;;;5067206;28;45390;-79
2022/03/01 01:09:04;;;;;;;;;58.25;45.25;;;;;;;;5072999;28;45345;-79
2022/03/01 01:11:29;;;;;;;;;84.67;66.00;;;;;;;;5068109;27;45528;-78
2022/03/01 01:13:54;;;;;;;;;87.67;66.00;;;;;;;;5071344;28;45357;-80
2022/03/01 01:16:20;;;;;;;;;65.67;53.67;;;;;;;;5073349;28;45288;-79
2022/03/01 01:18:45;;;;;;;;;95.33;78.00;;;;;;;;5071212;28;45505;-79
2022/03/01 01:21:11;;;;;;;;;62.00;46.75;;;;;;;;5071217;28;45222;-78
2022/03/01 01:23:37;;;;;;;;;70.33;56.33;;;;;;;;5078216;28;45356;-79
2022/03/01 01:26:02;;;;;;;;;63.00;52.00;;;;;;;;5072007;28;45308;-79
2022/03/01 01:28:27;;;;;;;;;58.50;46.00;;;;;;;;5077701;28;47132;-79
2022/03/01 01:30:53;;;;;;;;;74.00;57.00;;;;;;;;5071126;28;45898;-79
2022/03/01 01:33:18;;;;;;;;;60.75;47.25;;;;;;;;5072946;28;45362;-79
2022/03/01 01:35:43;;;;;;;;;69.33;53.00;;;;;;;;5067981;28;45547;-79
2022/03/01 01:38:08;;;;;;;;;59.25;48.00;;;;;;;;5076615;28;47067;-79
2022/03/01 01:40:34;;;;;;;;;61.33;49.33;;;;;;;;5071809;28;46362;-79
2022/03/01 01:43:00;;;;;;;;;56.50;46.00;;;;;;;;5074178;28;45370;-79
2022/03/01 01:45:26;;;;;;;;;71.33;53.00;;;;;;;;5076655;28;45341;-80
2022/03/01 01:47:52;;;;;;;;;62.00;51.00;;;;;;;;5074122;28;46392;-80
2022/03/01 01:50:18;;;;;;;;;62.00;52.00;;;;;;;;5077994;28;45695;-79
2022/03/01 01:52:45;;;;;;;;;58.25;43.75;;;;;;;;5074447;28;45260;-79
2022/03/01 01:55:10;;;;;;;;;54.00;42.50;;;;;;;;5074922;28;45918;-79
2022/03/01 01:57:36;;;;;;;;;61.25;49.00;;;;;;;;5077460;28;46739;-80
2022/03/01 02:00:01;;;;;;;;;58.25;48.25;;;;;;;;5075948;28;45399;-79
2022/03/01 02:02:27;;;;;;;;;63.50;51.00;;;;;;;;5065508;28;45393;-80
2022/03/01 02:04:52;;;;;;;;;59.25;43.00;;;;;;;;5076371;28;45219;-80
2022/03/01 02:07:17;;;;;;;;;62.00;48.50;;;;;;;;5070495;28;45441;-80
2022/03/01 02:09:43;;;;;;;;;69.00;53.33;;;;;;;;5077147;28;45302;-80
2022/03/01 02:12:08;;;;;;;;;64.00;52.00;;;;;;;;5080110;27;45454;-79
2022/03/01 02:14:35;;;;;;;;;68.00;53.00;;;;;;;;5078687;28;46215;-80
2022/03/01 02:17:01;;;;;;;;;66.50;51.50;;;;;;;;5074329;28;47354;-80
2022/03/01 02:19:26;;;;;;;;;75.33;55.33;;;;;;;;5075796;28;46355;-79
2022/03/01 02:21:54;;;;;;;;;59.75;48.25;;;;;;;;5072446;28;45480;-80
2022/03/01 02:24:20;;;;;;;;;59.67;49.67;;;;;;;;5077663;28;45229;-80
2022/03/01 02:26:45;;;;;;;;;69.67;51.00;;;;;;;;5073045;28;47173;-80
2022/03/01 02:29:10;;;;;;;;;68.67;54.33;;;;;;;;5078368;28;45307;-79
2022/03/01 02:31:36;;;;;;;;;56.50;45.50;;;;;;;;5073198;28;45263;-80
2022/03/01 02:34:01;;;;;;;;;60.00;49.75;;;;;;;;5077592;28;46209;-80
2022/03/01 02:36:26;;;;;;;;;63.00;48.75;;;;;;;;5069229;28;45267;-80
2022/03/01 02:38:52;;;;;;;;;67.67;52.33;;;;;;;;5080559;27;44704;-80
2022/03/01 02:41:17;;;;;;;;;71.67;53.33;;;;;;;;5067027;28;45134;-79
2022/03/01 02:43:42;;;;;;;;;60.50;48.75;;;;;;;;5078406;28;45381;-80
2022/03/01 02:46:08;;;;;;;;;65.25;52.75;;;;;;;;5069103;28;45330;-80
2022/03/01 02:48:34;;;;;;;;;68.33;52.67;;;;;;;;5079180;28;45543;-80
2022/03/01 02:50:59;;;;;;;;;65.50;51.25;;;;;;;;5075037;28;45281;-80
2022/03/01 02:53:24;;;;;;;;;62.33;50.00;;;;;;;;5079287;28;44996;-80
2022/03/01 02:55:49;;;;;;;;;57.75;43.50;;;;;;;;5073561;28;45503;-80
2022/03/01 02:58:16;;;;;;;;;62.33;50.00;;;;;;;;5067723;28;45261;-80
2022/03/01 03:00:42;;;;;;;;;62.50;48.50;;;;;;;;5070958;28;45424;-80
2022/03/01 03:03:07;;;;;;;;;64.50;51.75;;;;;;;;5066615;28;45244;-80
2022/03/01 03:05:32;;;;;;;;;74.33;54.67;;;;;;;;5072872;27;46158;-80
2022/03/01 03:07:57;;;;;;;;;62.75;48.25;;;;;;;;5069818;28;45344;-79
2022/03/01 03:10:22;;;;;;;;;70.67;51.33;;;;;;;;5072103;28;45224;-79
2022/03/01 03:12:48;;;;;;;;;67.00;50.00;;;;;;;;5066932;27;45158;-79
2022/03/01 03:15:13;;;;;;;;;63.33;54.00;;;;;;;;5074422;28;45328;-79
2022/03/01 03:17:38;;;;;;;;;63.33;51.67;;;;;;;;5071922;28;45319;-79
2022/03/01 03:20:04;;;;;;;;;64.25;51.25;;;;;;;;5075685;28;45516;-79
2022/03/01 03:22:29;;;;;;;;;65.67;52.33;;;;;;;;5071874;28;45712;-79
2022/03/01 03:24:55;;;;;;;;;65.25;50.00;;;;;;;;5076699;28;45741;-80
2022/03/01 03:27:20;;;;;;;;;63.33;53.33;;;;;;;;5071753;28;45313;-79
2022/03/01 03:29:45;;;;;;;;;66.00;51.00;;;;;;;;5078113;28;45225;-79
2022/03/01 03:32:11;;;;;;;;;62.67;50.00;;;;;;;;5073867;28;46086;-79
2022/03/01 03:34:36;;;;;;;;;62.75;50.50;;;;;;;;5077555;28;47945;-79
2022/03/01 03:37:01;;;;;;;;;61.33;47.67;;;;;;;;5071334;28;45244;-80
2022/03/01 03:39:26;;;;;;;;;65.00;50.33;;;;;;;;5076968;28;45493;-79
2022/03/01 03:41:52;;;;;;;;;65.33;51.67;;;;;;;;5064178;28;45429;-79
2022/03/01 03:44:17;;;;;;;;;66.33;55.33;;;;;;;;5079731;28;45449;-79
2022/03/01 03:46:42;;;;;;;;;64.67;51.00;;;;;;;;5067206;28;45443;-80
2022/03/01 03:49:07;;;;;;;;;65.33;52.33;;;;;;;;5081147;28;45209;-79
2022/03/01 03:51:33;;;;;;;;;62.00;50.00;;;;;;;;5077296;28;45597;-79
2022/03/01 03:53:58;;;;;;;;;68.00;50.67;;;;;;;;5080794;28;46349;-79
2022/03/01 03:56:23;;;;;;;;;68.67;53.67;;;;;;;;5070110;28;45335;-79
2022/03/01 03:58:49;;;;;;;;;63.50;49.25;;;;;;;;5068675;28;45567;-79
2022/03/01 04:01:15;;;;;;;;;68.67;52.00;;;;;;;;5066202;28;45535;-80
2022/03/01 04:03:40;;;;;;;;;67.33;51.33;;;;;;;;5067243;28;45265;-79
2022/03/01 04:06:06;;;;;;;;;64.67;49.33;;;;;;;;5071743;28;45374;-79
2022/03/01 04:08:32;;;;;;;;;65.00;53.25;;;;;;;;5069754;28;45338;-79
2022/03/01 04:10:57;;;;;;;;;72.33;55.33;;;;;;;;5072645;28;45400;-79
2022/03/01 04:13:26;;;;;;;;;63.33;52.67;;;;;;;;5078825;28;46677;-79
2022/03/01 04:15:51;;;;;;;;;58.25;46.00;;;;;;;;5073266;28;45292;-79
2022/03/01 04:18:16;;;;;;;;;66.00;50.25;;;;;;;;5078972;28;45241;-79
2022/03/01 04:20:42;;;;;;;;;61.75;50.00;;;;;;;;5073355;28;45366;-79
2022/03/01 04:23:07;;;;;;;;;63.25;50.00;;;;;;;;5072177;28;45544;-80
2022/03/01 04:25:32;;;;;;;;;71.00;53.00;;;;;;;;5073219;28;45293;-79
2022/03/01 04:27:57;;;;;;;;;64.50;49.75;;;;;;;;5078864;28;45337;-78
2022/03/01 04:30:23;;;;;;;;;66.25;51.00;;;;;;;;5073291;28;45485;-78
2022/03/01 04:32:49;;;;;;;;;56.00;46.67;;;;;;;;5078850;27;46808;-79
2022/03/01 04:35:15;;;;;;;;;64.75;50.75;;;;;;;;5072058;28;45358;-79
2022/03/01 04:37:41;;;;;;;;;61.50;49.25;;;;;;;;5072198;28;45284;-79
2022/03/01 04:40:07;;;;;;;;;65.00;51.25;;;;;;;;5072695;28;46031;-79
2022/03/01 04:42:32;;;;;;;;;88.67;66.67;;;;;;;;5074152;28;47209;-79
2022/03/01 04:44:59;;;;;;;;;69.33;52.00;;;;;;;;5075094;28;45277;-79
2022/03/01 04:47:24;;;;;;;;;63.75;50.50;;;;;;;;5069422;27;45193;-79
2022/03/01 04:49:49;;;;;;;;;68.00;49.50;;;;;;;;5076585;28;45218;-79
2022/03/01 04:52:14;;;;;;;;;62.25;50.50;;;;;;;;5068609;28;45546;-79
2022/03/01 04:54:40;;;;;;;;;63.67;49.33;;;;;;;;5077472;28;45211;-79
2022/03/01 04:57:05;;;;;;;;;61.00;47.25;;;;;;;;5069436;28;45220;-79
2022/03/01 04:59:30;;;;;;;;;63.25;50.75;;;;;;;;5077325;28;44717;-79
2022/03/01 05:01:55;;;;;;;;;60.50;48.00;;;;;;;;5061834;28;45381;-78
2022/03/01 05:04:22;;;;;;;;;55.25;45.75;;;;;;;;5069500;28;45335;-79
2022/03/01 05:06:56;;;;;;;;;58.00;46.75;;;;;;;;5060862;28;45225;-79
2022/03/01 05:09:21;;;;;;;;;59.00;43.75;;;;;;;;5065213;28;45409;-79
2022/03/01 05:11:50;;;;;;;;;62.00;49.25;;;;;;;;5062437;27;45607;-79
2022/03/01 05:14:16;;;;;;;;;59.75;47.50;;;;;;;;5072948;28;45475;-78
2022/03/01 05:16:41;;;;;;;;;55.50;43.00;;;;;;;;5077793;28;45435;-78
2022/03/01 05:19:08;;;;;;;;;55.50;46.25;;;;;;;;5077528;28;45354;-79
2022/03/01 05:21:34;;;;;;;;;62.75;44.75;;;;;;;;5073897;28;46487;-79
2022/03/01 05:23:59;;;;;;;;;59.25;45.00;;;;;;;;5077464;28;45250;-79
2022/03/01 05:26:24;;;;;;;;;58.75;44.50;;;;;;;;5075961;28;45229;-79
2022/03/01 05:28:49;;;;;;;;;47.50;39.25;;;;;;;;5082941;28;45427;-79
2022/03/01 05:31:15;;;;;;;;;58.25;44.75;;;;;;;;5075633;28;48012;-80
2022/03/01 05:33:41;;;;;;;;;59.25;48.00;;;;;;;;5077411;27;45235;-80
2022/03/01 05:36:06;;;;;;;;;58.75;46.00;;;;;;;;5073795;28;46090;-79
2022/03/01 05:38:31;;;;;;;;;65.00;49.00;;;;;;;;5082666;28;45220;-79
2022/03/01 05:40:57;;;;;;;;;64.25;49.00;;;;;;;;5070470;28;48190;-78
2022/03/01 05:43:22;;;;;;;;;69.75;54.00;;;;;;;;5082348;28;45330;-79
2022/03/01 05:45:47;;;;;;;;;60.75;49.50;;;;;;;;5073863;28;45258;-77
2022/03/01 05:48:13;;;;;;;;;64.75;49.25;;;;;;;;5081166;28;46456;-77
2022/03/01 05:50:38;;;;;;;;;51.00;39.25;;;;;;;;5068725;28;47002;-77
2022/03/01 05:53:03;;;;;;;;;61.75;46.50;;;;;;;;5066201;28;45673;-76
2022/03/01 05:55:28;;;;;;;;;60.50;47.50;;;;;;;;5067823;28;45338;-76
2022/03/01 05:57:54;;;;;;;;;61.25;50.25;;;;;;;;5060956;28;45855;-76
2022/03/01 06:00:20;;;;;;;;;55.25;43.25;;;;;;;;5064017;28;46431;-77
2022/03/01 06:02:46;;;;;;;;;65.50;49.75;;;;;;;;5068274;28;45521;-76
2022/03/01 06:05:12;;;;;;;;;65.25;48.75;;;;;;;;5063876;28;45326;-76
2022/03/01 06:07:37;;;;;;;;;66.25;48.50;;;;;;;;5062144;28;45296;-74
2022/03/01 06:10:03;;;;;;;;;65.00;50.25;;;;;;;;5071226;28;47042;-76
2022/03/01 06:12:28;;;;;;;;;64.75;48.50;;;;;;;;5063590;27;45533;-77
2022/03/01 06:14:53;;;;;;;;;64.25;52.50;;;;;;;;5081122;28;45205;-79
2022/03/01 06:17:18;;;;;;;;;66.50;52.50;;;;;;;;5072688;28;47059;-79
2022/03/01 06:19:44;;;;;;;;;67.25;49.75;;;;;;;;5078090;28;47051;-84
2022/03/01 06:22:09;;;;;;;;;66.00;50.75;;;;;;;;5070663;28;45267;-78
2022/03/01 06:24:38;;;;;;;;;63.00;48.25;;;;;;;;5076645;28;45248;-80
2022/03/01 06:27:05;;;;;;;;;62.00;49.50;;;;;;;;5069948;28;45339;-80
2022/03/01 06:29:30;;;;;;;;;62.00;47.75;;;;;;;;5079622;28;46562;-79
2022/03/01 06:31:55;;;;;;;;;62.75;49.00;;;;;;;;5069988;28;45313;-79
2022/03/01 06:34:20;;;;;;;;;67.00;49.25;;;;;;;;5077079;28;45259;-79
2022/03/01 06:36:46;;;;;;;;;63.00;48.00;;;;;;;;5063661;28;46299;-85
2022/03/01 06:39:11;;;;;;;;;67.00;54.50;;;;;;;;5068162;28;46839;-80
2022/03/01 06:41:36;;;;;;;;;66.25;49.00;;;;;;;;5066570;28;45350;-83
2022/03/01 06:44:01;;;;;;;;;69.75;54.25;;;;;;;;5079883;28;45343;-82
2022/03/01 06:46:27;;;;;;;;;73.00;53.00;;;;;;;;5072722;28;46203;-81
2022/03/01 06:48:52;;;;;;;;;64.00;52.25;;;;;;;;5081138;28;46414;-82
2022/03/01 06:51:17;;;;;;;;;68.00;50.25;;;;;;;;5075046;28;45477;-80
2022/03/01 06:53:42;;;;;;;;;65.50;50.25;;;;;;;;5079218;28;45384;-79
2022/03/01 06:56:08;;;;;;;;;68.00;51.00;;;;;;;;5070194;28;46038;-79
2022/03/01 06:58:33;;;;;;;;;68.00;52.00;;;;;;;;5079744;28;46855;-76
2022/03/01 07:01:01;;;;;;;;;67.25;52.25;;;;;;;;5068464;28;45327;-78
2022/03/01 07:03:26;;;;;;;;;68.50;53.75;;;;;;;;5078883;28;45516;-79
2022/03/01 07:05:51;;;;;;;;;94.33;67.00;;;;;;;;5072792;28;45727;-78
2022/03/01 07:08:20;;;;;;;;;76.00;59.00;;;;;;;;5070000;28;45220;-78
2022/03/01 07:10:45;;;;;;;;;78.00;58.00;;;;;;;;5072304;28;45308;-78
2022/03/01 07:13:10;;;;;;;;;89.33;69.33;;;;;;;;5070201;27;45283;-79
2022/03/01 07:15:37;;;;;;;;;77.67;62.33;;;;;;;;5074285;28;45500;-79
2022/03/01 07:18:03;;;;;;;;;74.33;57.00;;;;;;;;5072321;28;46554;-78
2022/03/01 07:20:29;;;;;;;;;99.00;87.00;;;;;;;;5073293;28;45461;-80
2022/03/01 07:22:54;;;;;;;;;95.00;85.00;;;;;;;;5073962;28;45303;-80
2022/03/01 07:25:19;;;;;;;;;83.00;62.33;;;;;;;;5072726;28;46187;-79
2022/03/01 07:27:49;;;;;;;;;73.67;54.33;;;;;;;;5073051;28;45334;-80
2022/03/01 07:30:14;;;;;;;;;95.00;78.67;;;;;;;;5073208;28;45330;-80
2022/03/01 07:32:39;;;;;;;;;77.33;57.00;;;;;;;;5060527;28;45338;-79
2022/03/01 07:35:05;;;;;;;;;80.00;63.33;;;;;;;;5061410;28;47452;-81
2022/03/01 07:37:32;;;;;;;;;114.67;99.00;;;;;;;;5064340;28;46429;-80
2022/03/01 07:39:58;;;;;;;;;67.67;55.00;;;;;;;;5063412;28;45399;-80
2022/03/01 07:42:23;;;;;;;;;68.33;54.00;;;;;;;;5066528;28;45283;-79
2022/03/01 07:44:48;;;;;;;;;80.67;63.00;;;;;;;;5067278;28;45159;-80
2022/03/01 07:47:14;;;;;;;;;72.75;53.00;;;;;;;;5059933;28;45499;-81
2022/03/01 07:49:39;;;;;;;;;62.00;51.50;;;;;;;;5062284;28;45212;-79
2022/03/01 07:52:04;;;;;;;;;83.33;63.00;;;;;;;;5060548;28;45255;-79
2022/03/01 07:54:29;;;;;;;;;68.67;55.67;;;;;;;;5062056;28;45447;-79
2022/03/01 07:56:55;;;;;;;;;81.00;61.33;;;;;;;;5061051;28;45523;-79
2022/03/01 07:59:20;;;;;;;;;59.50;46.25;;;;;;;;5060395;28;45405;-79
2022/03/01 08:01:45;;;;;;;;;69.50;54.00;;;;;;;;5067599;28;45313;-79
2022/03/01 08:04:11;;;;;;;;;66.00;54.25;;;;;;;;5061635;28;45644;-79
2022/03/01 08:06:36;;;;;;;;;69.00;54.00;;;;;;;;5075489;28;46891;-79
2022/03/01 08:09:01;;;;;;;;;70.67;57.67;;;;;;;;5064473;28;45462;-80
2022/03/01 08:11:26;;;;;;;;;75.25;56.00;;;;;;;;5066441;27;44745;-81
2022/03/01 08:13:51;;;;;;;;;74.00;56.00;;;;;;;;5078952;28;45299;-81
2022/03/01 08:16:17;;;;;;;;;70.25;55.25;;;;;;;;5071924;28;47028;-79
2022/03/01 08:18:42;;;;;;;;;60.25;50.00;;;;;;;;5078776;28;45339;-85
2022/03/01 08:21:08;;;;;;;;;68.50;51.25;;;;;;;;5072335;27;45294;-83
2022/03/01 08:23:33;;;;;;;;;71.25;53.00;;;;;;;;5062436;28;45331;-84
2022/03/01 08:25:58;;;;;;;;;65.50;52.75;;;;;;;;5074266;28;47066;-85
2022/03/01 08:28:24;;;;;;;;;60.00;46.25;;;;;;;;5080108;27;45330;-83
2022/03/01 08:30:50;;;;;;;;;59.75;46.50;;;;;;;;5071417;28;44766;-80
2022/03/01 08:33:16;;;;;;;;;63.75;52.00;;;;;;;;5072634;28;45323;-84
2022/03/01 08:35:41;;;;;;;;;67.50;53.75;;;;;;;;5065855;28;45721;-82
2022/03/01 08:38:06;;;;;;;;;65.75;51.50;;;;;;;;5079561;28;45346;-82
2022/03/01 08:40:33;;;;;;;;;67.25;50.50;;;;;;;;5074145;28;45438;-83
2022/03/01 08:42:59;;;;;;;;;73.50;54.25;;;;;;;;5058407;28;47379;-82
2022/03/01 08:45:24;;;;;;;;;65.75;50.50;;;;;;;;5074294;28;47393;-82
2022/03/01 08:47:50;;;;;;;;;68.25;51.75;;;;;;;;5078439;28;45249;-82
2022/03/01 08:50:16;;;;;;;;;60.25;48.75;;;;;;;;5067538;28;45408;-82
2022/03/01 08:52:41;;;;;;;;;62.75;48.25;;;;;;;;5070987;27;45354;-81
2022/03/01 08:55:07;;;;;;;;;62.75;50.75;;;;;;;;5078149;27;47136;-80
2022/03/01 08:57:33;;;;;;;;;68.00;52.50;;;;;;;;5068572;28;45443;-84
2022/03/01 08:59:58;;;;;;;;;67.25;52.75;;;;;;;;5060647;28;45450;-82
2022/03/01 09:02:23;;;;;;;;;66.25;49.50;;;;;;;;5059647;28;45247;-82
2022/03/01 09:04:48;;;;;;;;;65.75;51.25;;;;;;;;5058148;28;47217;-83
2022/03/01 09:07:14;;;;;;;;;62.75;50.75;;;;;;;;5058154;28;45403;-85
2022/03/01 09:09:39;;;;;;;;;70.25;52.25;;;;;;;;5071491;28;45363;-82
2022/03/01 09:12:05;;;;;;;;;63.75;49.25;;;;;;;;5073860;27;47182;-81
2022/03/01 09:14:30;;;;;;;;;64.50;51.00;;;;;;;;5064929;27;48999;-81
2022/03/01 09:16:55;;;;;;;;;66.50;48.50;;;;;;;;5057948;28;45293;-81
2022/03/01 09:19:21;;;;;;;;;61.00;48.00;;;;;;;;5058135;28;44726;-81
2022/03/01 09:21:46;;;;;;;;;58.25;45.50;;;;;;;;5057931;28;46575;-81
2022/03/01 09:24:11;;;;;;;;;52.50;42.50;;;;;;;;5058985;28;45390;-81
2022/03/01 09:26:37;;;;;;;;;63.75;49.50;;;;;;;;5063119;28;45405;-81
2022/03/01 09:29:02;;;;;;;;;59.25;48.00;;;;;;;;5058995;28;45383;-81
2022/03/01 09:31:27;;;;;;;;;47.25;37.25;;;;;;;;5059528;28;45266;-81
2022/03/01 09:33:53;;;;;;;;;61.25;48.00;;;;;;;;5059141;28;46568;-81
2022/03/01 09:36:18;;;;;;;;;54.75;43.50;;;;;;;;5062403;28;45356;-81
2022/03/01 09:38:43;;;;;;;;;58.50;45.75;;;;;;;;5063805;28;45274;-82
2022/03/01 09:41:10;;;;;;;;;55.75;44.50;;;;;;;;5058876;28;45492;-81
2022/03/01 09:43:37;;;;;;;;;54.75;43.75;;;;;;;;5058783;28;46611;-81
2022/03/01 09:46:02;;;;;;;;;55.75;41.75;;;;;;;;5057614;28;45626;-80
2022/03/01 09:48:28;;;;;;;;;51.50;40.25;;;;;;;;5057955;28;45333;-81
2022/03/01 09:50:54;;;;;;;;;59.50;46.50;;;;;;;;5059214;28;45217;-81
2022/03/01 09:53:19;;;;;;;;;51.75;42.75;;;;;;;;5058825;28;45360;-81
2022/03/01 09:55:45;;;;;;;;;52.75;39.75;;;;;;;;5057392;28;46065;-82
2022/03/01 09:58:10;;;;;;;;;48.50;40.25;;;;;;;;5057405;28;45344;-81
2022/03/01 10:00:35;;;;;;;;;50.50;40.25;;;;;;;;5060233;28;45469;-82
2022/03/01 10:03:01;;;;;;;;;49.25;40.00;;;;;;;;5060551;28;47167;-81
2022/03/01 10:05:34;;;;;;;;;42.75;34.25;;;;;;;;5061068;28;45402;-81
2022/03/01 10:08:06;;;;;;;;;51.50;40.75;;;;;;;;5060965;28;45393;-81
2022/03/01 10:10:35;;;;;;;;;53.50;42.50;;;;;;;;5061931;28;45231;-81
2022/03/01 10:13:01;;;;;;;;;52.00;42.00;;;;;;;;5080126;27;45431;-81
2022/03/01 10:15:28;;;;;;;;;47.25;38.50;;;;;;;;5082752;28;45247;-81
2022/03/01 10:17:53;;;;;;;;;55.25;44.00;;;;;;;;5081212;28;45304;-81
2022/03/01 10:20:19;;;;;;;;;53.75;43.25;;;;;;;;5082273;28;45548;-81
2022/03/01 10:22:49;;;;;;;;;57.25;43.25;;;;;;;;5082176;28;45252;-81
2022/03/01 10:25:15;;;;;;;;;79.25;64.25;;;;;;;;5082190;28;45208;-82
2022/03/01 10:27:42;;;;;;;;;57.50;46.50;;;;;;;;5081045;28;45354;-82
2022/03/01 10:30:08;;;;;;;;;58.50;46.25;;;;;;;;5080772;28;46046;-82
2022/03/01 10:32:34;;;;;;;;;56.25;45.50;;;;;;;;5080783;28;47015;-82
2022/03/01 10:35:01;;;;;;;;;70.25;52.75;;;;;;;;5082800;27;45311;-82
2022/03/01 10:37:30;;;;;;;;;59.50;46.75;;;;;;;;5076448;28;45758;-82
2022/03/01 10:40:08;;;;;;;;;53.50;44.75;;;;;;;;5060131;28;45945;-82
2022/03/01 10:42:34;;;;;;;;;52.50;42.25;;;;;;;;5061575;28;46733;-82
2022/03/01 10:44:59;;;;;;;;;61.25;46.75;;;;;;;;5061724;28;45275;-82
2022/03/01 10:47:24;;;;;;;;;54.75;43.75;;;;;;;;5060288;28;45280;-82
2022/03/01 10:49:59;;;;;;;;;60.50;46.25;;;;;;;;5061611;28;45181;-82
2022/03/01 10:52:30;;;;;;;;;54.25;45.00;;;;;;;;5067908;28;48600;-82
2022/03/01 10:54:56;;;;;;;;;57.00;45.75;;;;;;;;5081527;28;45518;-82
2022/03/01 10:57:22;;;;;;;;;64.00;49.75;;;;;;;;5080781;28;45416;-81
2022/03/01 10:59:47;;;;;;;;;60.25;48.75;;;;;;;;5079844;28;45374;-81
2022/03/01 11:02:13;;;;;;;;;54.00;42.75;;;;;;;;5061430;28;45614;-82
2022/03/01 11:04:38;;;;;;;;;56.50;45.75;;;;;;;;5059968;28;45328;-83
2022/03/01 11:07:04;;;;;;;;;56.00;46.00;;;;;;;;5060316;28;44753;-82
2022/03/01 11:09:31;;;;;;;;;46.00;37.00;;;;;;;;5059789;28;46370;-82
2022/03/01 11:11:57;;;;;;;;;48.25;38.75;;;;;;;;5070311;27;46368;-82
2022/03/01 11:14:24;;;;;;;;;50.75;40.50;;;;;;;;5080626;28;45216;-82
2022/03/01 11:17:11;;;;;;;;;48.75;38.25;;;;;;;;5082421;28;45311;-82
2022/03/01 11:19:48;;;;;;;;;52.75;42.75;;;;;;;;5081151;28;45275;-82
2022/03/01 11:22:19;;;;;;;;;52.00;41.25;;;;;;;;5079969;28;48164;-82
2022/03/01 11:24:45;;;;;;;;;51.50;43.75;;;;;;;;5081096;28;45346;-82
2022/03/01 11:27:10;;;;;;;;;53.50;42.75;;;;;;;;5080039;27;45379;-81
2022/03/01 11:29:40;;;;;;;;;51.25;41.25;;;;;;;;5081211;28;45444;-82
2022/03/01 11:32:10;;;;;;;;;52.00;40.50;;;;;;;;5079493;28;47593;-81
2022/03/01 11:34:36;;;;;;;;;49.50;41.25;;;;;;;;5060049;28;45356;-82
2022/03/01 11:37:02;;;;;;;;;43.00;35.75;;;;;;;;5069231;28;45379;-82
2022/03/01 11:39:31;;;;;;;;;54.00;40.75;;;;;;;;5079542;28;46015;-82
2022/03/01 11:42:01;;;;;;;;;43.50;37.50;;;;;;;;5079412;28;48413;-82
2022/03/01 11:44:32;;;;;;;;;52.75;40.00;;;;;;;;5081175;28;45503;-82
2022/03/01 11:46:58;;;;;;;;;45.50;37.50;;;;;;;;5079531;28;45304;-82
2022/03/01 11:49:23;;;;;;;;;49.50;39.75;;;;;;;;5081252;28;45283;-82
2022/03/01 11:51:58;;;;;;;;;46.25;38.75;;;;;;;;5079525;28;47143;-82
2022/03/01 11:54:26;;;;;;;;;49.25;38.25;;;;;;;;5079399;28;45759;-82
2022/03/01 11:56:53;;;;;;;;;47.25;38.50;;;;;;;;5062864;28;45375;-82
2022/03/01 11:59:18;;;;;;;;;51.75;41.25;;;;;;;;5060205;28;46402;-82
2022/03/01 12:01:45;;;;;;;;;47.50;39.00;;;;;;;;5061352;28;46945;-82
2022/03/01 12:04:11;;;;;;;;;51.00;42.00;;;;;;;;5059233;28;45283;-82
2022/03/01 12:06:38;;;;;;;;;47.50;38.75;;;;;;;;5060476;28;45275;-82
2022/03/01 12:09:04;;;;;;;;;43.25;35.25;;;;;;;;5071468;28;45455;-82
2022/03/01 12:11:37;;;;;;;;;36.75;33.75;;;;;;;;5065457;27;45515;-82
2022/03/01 12:14:07;;;;;;;;;42.00;36.25;;;;;;;;5080068;28;45429;-82
2022/03/01 12:16:33;;;;;;;;;38.75;31.75;;;;;;;;5080628;28;45453;-81
2022/03/01 12:19:19;;;;;;;;;29.25;29.25;;;;;;;;5066593;28;45404;-80
2022/03/01 12:21:48;;;;;;;;;32.50;30.75;;;;;;;;5059621;28;45584;-81
2022/03/01 12:24:13;;;;;;;;;35.00;31.75;;;;;;;;5059227;28;45280;-83
2022/03/01 12:26:46;;;;;;;;;40.75;31.50;;;;;;;;5059524;28;45255;-82
2022/03/01 12:29:12;;;;;;;;;37.00;28.75;;;;;;;;5059977;28;45252;-84
2022/03/01 12:31:38;;;;;;;;;41.50;31.25;;;;;;;;5060750;28;47141;-82
2022/03/01 12:34:05;;;;;;;;;37.75;34.25;;;;;;;;5072426;28;45805;-82
2022/03/01 12:36:41;;;;;;;;;80.50;70.50;;;;;;;;5064058;28;45197;-84
2022/03/01 12:39:11;;;;;;;;;39.50;33.25;;;;;;;;5060407;28;45359;-84
2022/03/01 12:41:37;;;;;;;;;45.00;36.75;;;;;;;;5058145;28;46034;-80
2022/03/01 12:44:04;;;;;;;;;42.25;34.50;;;;;;;;5065762;28;45311;-81
2022/03/01 12:46:29;;;;;;;;;40.25;33.50;;;;;;;;5078691;27;45640;-84
2022/03/01 12:48:56;;;;;;;;;41.75;34.75;;;;;;;;5058585;28;47077;-85
2022/03/01 12:51:23;;;;;;;;;40.50;34.25;;;;;;;;5063227;27;45602;-81
2022/03/01 12:53:54;;;;;;;;;41.25;33.00;;;;;;;;5058118;28;45320;-80
2022/03/01 12:56:21;;;;;;;;;44.00;33.50;;;;;;;;5059404;28;45665;-81
2022/03/01 12:58:46;;;;;;;;;36.00;33.50;;;;;;;;5057942;28;46330;-81
2022/03/01 13:01:11;;;;;;;;;38.25;33.00;;;;;;;;5062331;28;45516;-80
2022/03/01 13:03:36;;;;;;;;;41.75;34.00;;;;;;;;5059538;28;45437;-83
2022/03/01 13:06:06;;;;;;;;;42.75;33.75;;;;;;;;5059608;28;45236;-79
2022/03/01 13:08:32;;;;;;;;;38.75;31.75;;;;;;;;5064565;28;45544;-79
2022/03/01 13:10:57;;;;;;;;;38.00;33.00;;;;;;;;5062127;27;45681;-81
2022/03/01 13:13:22;;;;;;;;;36.75;31.50;;;;;;;;5079625;28;45216;-82
2022/03/01 13:15:48;;;;;;;;;36.00;32.75;;;;;;;;5078355;28;45397;-82
2022/03/01 13:18:13;;;;;;;;;36.00;29.75;;;;;;;;5079816;28;45242;-81
2022/03/01 13:20:38;;;;;;;;;36.00;29.75;;;;;;;;5079237;28;45360;-82
2022/03/01 13:23:06;;;;;;;;;36.25;30.50;;;;;;;;5078295;28;45511;-82
2022/03/01 13:25:32;;;;;;;;;31.50;29.00;;;;;;;;5065925;28;45405;-80
2022/03/01 13:27:57;;;;;;;;;39.50;30.50;;;;;;;;5058609;28;46025;-83
2022/03/01 13:30:23;;;;;;;;;42.25;34.25;;;;;;;;5059169;28;47271;-83
2022/03/01 13:32:50;;;;;;;;;30.25;29.75;;;;;;;;5066225;28;45254;-82
2022/03/01 13:35:16;;;;;;;;;44.25;33.00;;;;;;;;5066565;28;44709;-84
2022/03/01 13:37:42;;;;;;;;;42.25;33.25;;;;;;;;5074245;28;45887;-84
2022/03/01 13:40:09;;;;;;;;;32.50;29.50;;;;;;;;5075956;28;45568;-82
2022/03/01 13:42:34;;;;;;;;;34.33;30.67;;;;;;;;5069518;28;45192;-85
2022/03/01 13:45:00;;;;;;;;;37.25;31.75;;;;;;;;5067501;28;44773;-82
2022/03/01 13:47:27;;;;;;;;;35.25;29.00;;;;;;;;5062199;28;45405;-83
2022/03/01 13:49:54;;;;;;;;;32.50;31.50;;;;;;;;5061098;28;45857;-84
2022/03/01 13:52:21;;;;;;;;;35.50;30.75;;;;;;;;5062328;28;45353;-83
2022/03/01 13:54:49;;;;;;;;;34.75;30.25;;;;;;;;5062058;28;45246;-83
2022/03/01 13:57:22;;;;;;;;;36.75;29.25;;;;;;;;5062067;28;45623;-83
2022/03/01 14:00:06;;;;;;;;;30.67;27.67;;;;;;;;5065929;28;46607;-85
2022/03/01 14:02:32;;;;;;;;;36.50;30.00;;;;;;;;5062798;28;45230;-87
2022/03/01 14:05:01;;;;;;;;;32.25;29.75;;;;;;;;5062306;28;45236;-87
2022/03/01 14:07:27;;;;;;;;;35.00;29.75;;;;;;;;5062626;28;45638;-83
2022/03/01 14:09:52;;;;;;;;;34.50;30.25;;;;;;;;5060480;28;48306;-84